Aérodrome :
LOGIN :

S'inscrire | Disclaimer

   EN    FR    IT 

 










Légende :    VFR   VFR Marginal   IFR   IFR Intensif   IFR Très Intensif
Visi : 
Plafond : 
>= 8 km
>= 3000ft
5 à 8 km
1000 à 3000 ft
1500m à 5 km
500 à 1000 ft
800 à 1500m
200 à 500 ft
< 800m
< 200 ft
Symboles :   Orages  Brouillard  Fortes neiges  Fortes précipitations  Vent > 20 kt
SIGMETs :   Divers  Orages  Givrage  Turbulence  Onde Orograph.  Cendres Volcan.







- Altitude de l'aérodrome : 1234 ft
- Code IATA : LUX


ELLX - Luxembourg Findel

DERNIER METAR :
  • 220820Z 02004KT 330V080 9999 FEW020 13/06 Q1020 NOSIG

METARs EXPIRÉS :
  • 220750Z 03003KT 320V120 9999 FEW010 12/06 Q1019 NOSIG
  • 220720Z 35006KT 310V030 9999 FEW010 11/06 Q1019 NOSIG
  • 220650Z 36007KT 8000 FEW008 10/06 Q1019 NOSIG
  • 220620Z AUTO 33008KT 7000 FEW009/// 09/06 Q1019 NOSIG
  • 220550Z 33007KT 4500 BR SCT006 08/06 Q1019 NOSIG

TAF TAF ELLX
Valide du 22 à 06h jusqu'au 23 à 12h UTC


220500Z 2206/2312 32010KT CAVOK
TEMPO 2206/2208 3000 BR SCT005
TEMPO 2209/2212 9999 SCT035
BECMG 2220/2222 VRB03KT
PROB40
TEMPO 2302/2306 5000 BR BKN010
ATIS : +352 4798 27300
Météo : +352 4798 27010 / 27050
Pas de NOTAMs connus pour ce terrain.



MET'MAP, la Météo Aéronautique d'un coup d'oeil ! - Copyright ORBIFLY Décembre 2007 - Disclaimer

ORBIFLY MET'MAP TEAM :

Programmation & Développement : Alexandra Zaïnal
Conception & Développement : Baudouin d'Aumeries
Co-Programmation & Développement : Marc-Olivier Méhu
Soutien technique & logistique : Manuel Goepfert

Contact : metmap@orbifly.com




SOURCES & CREDITS :

   NOAA